sensor_id;sensor_type;location;lat;lon;timestamp;temperature;humidity
13354;DHT22;6746;50.892;4.064;2024-02-15T00:02:14;13.20;99.90
13354;DHT22;6746;50.892;4.064;2024-02-15T00:04:52;13.20;99.90
13354;DHT22;6746;50.892;4.064;2024-02-15T00:07:30;13.20;99.90
13354;DHT22;6746;50.892;4.064;2024-02-15T00:10:08;13.30;99.90
13354;DHT22;6746;50.892;4.064;2024-02-15T00:12:46;13.20;99.90
13354;DHT22;6746;50.892;4.064;2024-02-15T00:15:24;13.20;99.90
13354;DHT22;6746;50.892;4.064;2024-02-15T00:18:02;13.20;99.90
13354;DHT22;6746;50.892;4.064;2024-02-15T00:20:40;13.20;99.90
13354;DHT22;6746;50.892;4.064;2024-02-15T00:23:18;13.20;99.90
13354;DHT22;6746;50.892;4.064;2024-02-15T00:25:56;13.20;99.90
13354;DHT22;6746;50.892;4.064;2024-02-15T00:28:34;13.20;99.90
13354;DHT22;6746;50.892;4.064;2024-02-15T00:31:12;13.20;99.90
13354;DHT22;6746;50.892;4.064;2024-02-15T00:33:56;13.20;99.90
13354;DHT22;6746;50.892;4.064;2024-02-15T00:36:34;13.20;99.90
13354;DHT22;6746;50.892;4.064;2024-02-15T00:39:14;13.20;99.90
13354;DHT22;6746;50.892;4.064;2024-02-15T00:41:53;13.10;99.90
13354;DHT22;6746;50.892;4.064;2024-02-15T00:44:39;13.00;99.90
13354;DHT22;6746;50.892;4.064;2024-02-15T00:47:17;13.00;99.90
13354;DHT22;6746;50.892;4.064;2024-02-15T00:49:55;13.00;99.90
13354;DHT22;6746;50.892;4.064;2024-02-15T00:52:33;12.90;99.90
13354;DHT22;6746;50.892;4.064;2024-02-15T00:55:21;12.90;99.90
13354;DHT22;6746;50.892;4.064;2024-02-15T00:58:08;12.90;99.90
13354;DHT22;6746;50.892;4.064;2024-02-15T01:00:57;13.00;99.90
13354;DHT22;6746;50.892;4.064;2024-02-15T01:03:45;13.00;99.90
13354;DHT22;6746;50.892;4.064;2024-02-15T01:06:23;13.00;99.90
13354;DHT22;6746;50.892;4.064;2024-02-15T01:09:01;13.00;99.90
13354;DHT22;6746;50.892;4.064;2024-02-15T01:11:49;13.00;99.90
13354;DHT22;6746;50.892;4.064;2024-02-15T01:14:32;13.00;99.90
13354;DHT22;6746;50.892;4.064;2024-02-15T01:17:10;13.00;99.90
13354;DHT22;6746;50.892;4.064;2024-02-15T01:19:58;13.00;99.90
13354;DHT22;6746;50.892;4.064;2024-02-15T01:22:46;13.00;99.90
13354;DHT22;6746;50.892;4.064;2024-02-15T01:25:34;13.00;99.90
13354;DHT22;6746;50.892;4.064;2024-02-15T01:28:12;13.00;99.90
13354;DHT22;6746;50.892;4.064;2024-02-15T01:30:50;12.90;99.90
13354;DHT22;6746;50.892;4.064;2024-02-15T01:33:36;12.90;99.90
13354;DHT22;6746;50.892;4.064;2024-02-15T01:36:14;12.90;99.90
13354;DHT22;6746;50.892;4.064;2024-02-15T01:38:52;12.90;99.90
13354;DHT22;6746;50.892;4.064;2024-02-15T01:41:30;12.90;99.90
13354;DHT22;6746;50.892;4.064;2024-02-15T01:44:08;12.90;99.90
13354;DHT22;6746;50.892;4.064;2024-02-15T01:46:46;12.90;99.90
13354;DHT22;6746;50.892;4.064;2024-02-15T01:49:24;12.90;99.90
13354;DHT22;6746;50.892;4.064;2024-02-15T01:52:02;12.90;99.90
13354;DHT22;6746;50.892;4.064;2024-02-15T01:54:50;12.90;99.90
13354;DHT22;6746;50.892;4.064;2024-02-15T01:57:38;12.90;99.90
13354;DHT22;6746;50.892;4.064;2024-02-15T02:00:19;12.90;99.90
13354;DHT22;6746;50.892;4.064;2024-02-15T02:02:57;12.90;99.90
13354;DHT22;6746;50.892;4.064;2024-02-15T02:05:44;12.90;99.90
13354;DHT22;6746;50.892;4.064;2024-02-15T02:08:22;12.90;99.90
13354;DHT22;6746;50.892;4.064;2024-02-15T02:11:00;12.90;99.90
13354;DHT22;6746;50.892;4.064;2024-02-15T02:13:43;12.90;99.90
13354;DHT22;6746;50.892;4.064;2024-02-15T02:16:28;12.90;99.90
13354;DHT22;6746;50.892;4.064;2024-02-15T02:19:05;12.90;99.90
13354;DHT22;6746;50.892;4.064;2024-02-15T02:21:43;12.90;99.90
13354;DHT22;6746;50.892;4.064;2024-02-15T02:24:22;12.90;99.90
13354;DHT22;6746;50.892;4.064;2024-02-15T02:26:59;12.90;99.90
13354;DHT22;6746;50.892;4.064;2024-02-15T02:29:41;12.90;99.90
13354;DHT22;6746;50.892;4.064;2024-02-15T02:32:15;12.90;99.90
13354;DHT22;6746;50.892;4.064;2024-02-15T02:34:53;12.90;99.90
13354;DHT22;6746;50.892;4.064;2024-02-15T02:37:34;12.90;99.90
13354;DHT22;6746;50.892;4.064;2024-02-15T02:40:15;12.90;99.90
13354;DHT22;6746;50.892;4.064;2024-02-15T02:42:53;12.90;99.90
13354;DHT22;6746;50.892;4.064;2024-02-15T02:45:39;12.90;99.90
13354;DHT22;6746;50.892;4.064;2024-02-15T02:48:17;13.00;99.90
13354;DHT22;6746;50.892;4.064;2024-02-15T02:50:55;13.00;99.90
13354;DHT22;6746;50.892;4.064;2024-02-15T02:53:33;13.00;99.90
13354;DHT22;6746;50.892;4.064;2024-02-15T02:56:16;12.90;99.90
13354;DHT22;6746;50.892;4.064;2024-02-15T02:58:55;13.00;99.90
13354;DHT22;6746;50.892;4.064;2024-02-15T03:01:36;12.90;99.90
13354;DHT22;6746;50.892;4.064;2024-02-15T03:04:16;12.90;99.90
13354;DHT22;6746;50.892;4.064;2024-02-15T03:07:00;13.00;99.90
13354;DHT22;6746;50.892;4.064;2024-02-15T03:09:38;13.00;99.90
13354;DHT22;6746;50.892;4.064;2024-02-15T03:12:26;13.00;99.90
13354;DHT22;6746;50.892;4.064;2024-02-15T03:15:04;13.00;99.90
13354;DHT22;6746;50.892;4.064;2024-02-15T03:17:42;13.00;99.90
13354;DHT22;6746;50.892;4.064;2024-02-15T03:20:29;13.00;99.90
13354;DHT22;6746;50.892;4.064;2024-02-15T03:23:17;13.00;99.90
13354;DHT22;6746;50.892;4.064;2024-02-15T03:26:07;13.00;99.90
13354;DHT22;6746;50.892;4.064;2024-02-15T03:28:53;13.00;99.90
13354;DHT22;6746;50.892;4.064;2024-02-15T03:31:34;13.00;99.90
13354;DHT22;6746;50.892;4.064;2024-02-15T03:34:11;13.10;99.90
13354;DHT22;6746;50.892;4.064;2024-02-15T03:36:49;13.10;99.90
13354;DHT22;6746;50.892;4.064;2024-02-15T03:39:29;13.00;99.90
13354;DHT22;6746;50.892;4.064;2024-02-15T03:42:07;13.00;99.90
13354;DHT22;6746;50.892;4.064;2024-02-15T03:44:45;13.00;99.90
13354;DHT22;6746;50.892;4.064;2024-02-15T03:47:23;13.00;99.90
13354;DHT22;6746;50.892;4.064;2024-02-15T03:50:02;13.00;99.90
13354;DHT22;6746;50.892;4.064;2024-02-15T03:52:42;13.00;99.90
13354;DHT22;6746;50.892;4.064;2024-02-15T03:55:21;13.00;99.90
13354;DHT22;6746;50.892;4.064;2024-02-15T03:57:59;13.00;99.90
13354;DHT22;6746;50.892;4.064;2024-02-15T04:00:37;13.00;99.90
13354;DHT22;6746;50.892;4.064;2024-02-15T04:03:15;12.90;99.90
13354;DHT22;6746;50.892;4.064;2024-02-15T04:05:53;12.90;99.90
13354;DHT22;6746;50.892;4.064;2024-02-15T04:08:33;12.90;99.90
13354;DHT22;6746;50.892;4.064;2024-02-15T04:11:11;12.80;99.90
13354;DHT22;6746;50.892;4.064;2024-02-15T04:13:49;12.80;99.90
13354;DHT22;6746;50.892;4.064;2024-02-15T04:16:27;12.90;99.90
13354;DHT22;6746;50.892;4.064;2024-02-15T04:19:06;12.80;99.90
13354;DHT22;6746;50.892;4.064;2024-02-15T04:21:44;12.80;99.90
13354;DHT22;6746;50.892;4.064;2024-02-15T04:24:29;12.80;99.90
13354;DHT22;6746;50.892;4.064;2024-02-15T04:27:08;12.80;99.90
13354;DHT22;6746;50.892;4.064;2024-02-15T04:29:53;12.80;99.90
13354;DHT22;6746;50.892;4.064;2024-02-15T04:32:32;12.80;99.90
13354;DHT22;6746;50.892;4.064;2024-02-15T04:35:12;12.80;99.90
13354;DHT22;6746;50.892;4.064;2024-02-15T04:37:50;12.80;99.90
13354;DHT22;6746;50.892;4.064;2024-02-15T04:40:28;12.90;99.90
13354;DHT22;6746;50.892;4.064;2024-02-15T04:43:06;12.80;99.90
13354;DHT22;6746;50.892;4.064;2024-02-15T04:45:44;12.80;99.90
13354;DHT22;6746;50.892;4.064;2024-02-15T04:48:22;12.80;99.90
13354;DHT22;6746;50.892;4.064;2024-02-15T04:51:00;12.80;99.90
13354;DHT22;6746;50.892;4.064;2024-02-15T04:53:38;12.80;99.90
13354;DHT22;6746;50.892;4.064;2024-02-15T04:56:26;12.80;99.90
13354;DHT22;6746;50.892;4.064;2024-02-15T04:59:14;12.80;99.90
13354;DHT22;6746;50.892;4.064;2024-02-15T05:01:57;12.80;99.90
13354;DHT22;6746;50.892;4.064;2024-02-15T05:04:35;12.80;99.90
13354;DHT22;6746;50.892;4.064;2024-02-15T05:07:13;12.80;99.90
13354;DHT22;6746;50.892;4.064;2024-02-15T05:09:51;12.80;99.90
13354;DHT22;6746;50.892;4.064;2024-02-15T05:12:29;12.80;99.90
13354;DHT22;6746;50.892;4.064;2024-02-15T05:15:07;12.80;99.90
13354;DHT22;6746;50.892;4.064;2024-02-15T05:17:45;12.80;99.90
13354;DHT22;6746;50.892;4.064;2024-02-15T05:20:23;12.80;99.90
13354;DHT22;6746;50.892;4.064;2024-02-15T05:23:06;12.80;99.90
13354;DHT22;6746;50.892;4.064;2024-02-15T05:25:45;12.80;99.90
13354;DHT22;6746;50.892;4.064;2024-02-15T05:28:25;12.80;99.90
13354;DHT22;6746;50.892;4.064;2024-02-15T05:31:10;12.80;99.90
13354;DHT22;6746;50.892;4.064;2024-02-15T05:33:50;12.70;99.90
13354;DHT22;6746;50.892;4.064;2024-02-15T05:36:28;12.70;99.90
13354;DHT22;6746;50.892;4.064;2024-02-15T05:39:06;12.70;99.90
13354;DHT22;6746;50.892;4.064;2024-02-15T05:41:44;12.70;99.90
13354;DHT22;6746;50.892;4.064;2024-02-15T05:44:22;12.70;99.90
13354;DHT22;6746;50.892;4.064;2024-02-15T05:47:00;12.70;99.90
13354;DHT22;6746;50.892;4.064;2024-02-15T05:49:48;12.70;99.90
13354;DHT22;6746;50.892;4.064;2024-02-15T05:52:36;12.60;99.90
13354;DHT22;6746;50.892;4.064;2024-02-15T05:55:17;12.60;99.90
13354;DHT22;6746;50.892;4.064;2024-02-15T05:57:55;12.70;99.90
13354;DHT22;6746;50.892;4.064;2024-02-15T06:00:33;12.70;99.90
13354;DHT22;6746;50.892;4.064;2024-02-15T06:03:11;12.60;99.90
13354;DHT22;6746;50.892;4.064;2024-02-15T06:05:49;12.60;99.90
13354;DHT22;6746;50.892;4.064;2024-02-15T06:08:27;12.70;99.90
13354;DHT22;6746;50.892;4.064;2024-02-15T06:11:08;12.60;99.90
13354;DHT22;6746;50.892;4.064;2024-02-15T06:13:46;12.60;99.90
13354;DHT22;6746;50.892;4.064;2024-02-15T06:16:24;12.60;99.90
13354;DHT22;6746;50.892;4.064;2024-02-15T06:19:02;12.60;99.90
13354;DHT22;6746;50.892;4.064;2024-02-15T06:21:43;12.60;99.90
13354;DHT22;6746;50.892;4.064;2024-02-15T06:24:21;12.60;99.90
13354;DHT22;6746;50.892;4.064;2024-02-15T06:26:59;12.60;99.90
13354;DHT22;6746;50.892;4.064;2024-02-15T06:29:37;12.60;99.90
13354;DHT22;6746;50.892;4.064;2024-02-15T06:32:33;12.50;99.90
13354;DHT22;6746;50.892;4.064;2024-02-15T06:35:29;12.50;99.90
13354;DHT22;6746;50.892;4.064;2024-02-15T06:38:25;12.50;99.90
13354;DHT22;6746;50.892;4.064;2024-02-15T06:41:21;12.50;99.90
13354;DHT22;6746;50.892;4.064;2024-02-15T06:43:59;12.50;99.90
13354;DHT22;6746;50.892;4.064;2024-02-15T06:46:37;12.50;99.90
13354;DHT22;6746;50.892;4.064;2024-02-15T06:49:15;12.50;99.90
13354;DHT22;6746;50.892;4.064;2024-02-15T06:51:53;12.50;99.90
13354;DHT22;6746;50.892;4.064;2024-02-15T06:54:31;12.60;99.90
13354;DHT22;6746;50.892;4.064;2024-02-15T06:57:09;12.50;99.90
13354;DHT22;6746;50.892;4.064;2024-02-15T06:59:50;12.50;99.90
13354;DHT22;6746;50.892;4.064;2024-02-15T07:02:30;12.50;99.90
13354;DHT22;6746;50.892;4.064;2024-02-15T07:05:13;12.50;99.90
13354;DHT22;6746;50.892;4.064;2024-02-15T07:07:51;12.50;99.90
13354;DHT22;6746;50.892;4.064;2024-02-15T07:10:39;12.50;99.90
13354;DHT22;6746;50.892;4.064;2024-02-15T07:13:12;12.50;99.90
13354;DHT22;6746;50.892;4.064;2024-02-15T07:15:43;12.50;99.90
13354;DHT22;6746;50.892;4.064;2024-02-15T07:18:12;12.50;99.90
13354;DHT22;6746;50.892;4.064;2024-02-15T07:20:39;12.50;99.90
13354;DHT22;6746;50.892;4.064;2024-02-15T07:25:51;12.60;99.90
13354;DHT22;6746;50.892;4.064;2024-02-15T07:28:20;12.60;99.90
13354;DHT22;6746;50.892;4.064;2024-02-15T07:30:47;12.70;99.90
13354;DHT22;6746;50.892;4.064;2024-02-15T07:33:16;12.70;99.90
13354;DHT22;6746;50.892;4.064;2024-02-15T07:35:44;12.70;99.90
13354;DHT22;6746;50.892;4.064;2024-02-15T07:38:13;12.70;99.90
13354;DHT22;6746;50.892;4.064;2024-02-15T07:40:41;12.70;99.90
13354;DHT22;6746;50.892;4.064;2024-02-15T07:43:10;12.80;99.90
13354;DHT22;6746;50.892;4.064;2024-02-15T07:45:41;12.80;99.90
13354;DHT22;6746;50.892;4.064;2024-02-15T07:48:10;12.80;99.90
13354;DHT22;6746;50.892;4.064;2024-02-15T07:50:46;12.90;99.90
13354;DHT22;6746;50.892;4.064;2024-02-15T07:53:15;12.90;99.90
13354;DHT22;6746;50.892;4.064;2024-02-15T07:55:53;13.00;99.90
13354;DHT22;6746;50.892;4.064;2024-02-15T07:58:31;13.00;99.90
13354;DHT22;6746;50.892;4.064;2024-02-15T08:01:02;13.00;99.90
13354;DHT22;6746;50.892;4.064;2024-02-15T08:03:33;13.10;99.90
13354;DHT22;6746;50.892;4.064;2024-02-15T08:06:11;13.20;99.90
13354;DHT22;6746;50.892;4.064;2024-02-15T08:08:51;13.20;99.90
13354;DHT22;6746;50.892;4.064;2024-02-15T08:11:22;13.30;99.90
13354;DHT22;6746;50.892;4.064;2024-02-15T08:13:54;13.30;99.90
13354;DHT22;6746;50.892;4.064;2024-02-15T08:16:22;13.40;99.90
13354;DHT22;6746;50.892;4.064;2024-02-15T08:18:51;13.50;99.90
13354;DHT22;6746;50.892;4.064;2024-02-15T08:21:34;13.50;99.90
13354;DHT22;6746;50.892;4.064;2024-02-15T08:24:10;13.60;99.90
13354;DHT22;6746;50.892;4.064;2024-02-15T08:26:39;13.70;99.90
13354;DHT22;6746;50.892;4.064;2024-02-15T08:29:07;13.80;99.90
13354;DHT22;6746;50.892;4.064;2024-02-15T08:31:35;13.80;99.90
13354;DHT22;6746;50.892;4.064;2024-02-15T08:34:06;13.90;99.90
13354;DHT22;6746;50.892;4.064;2024-02-15T08:36:37;13.90;99.90
13354;DHT22;6746;50.892;4.064;2024-02-15T08:39:16;14.00;99.90
13354;DHT22;6746;50.892;4.064;2024-02-15T08:41:55;14.00;99.90
13354;DHT22;6746;50.892;4.064;2024-02-15T08:44:23;14.00;99.90
13354;DHT22;6746;50.892;4.064;2024-02-15T08:46:51;14.00;99.90
13354;DHT22;6746;50.892;4.064;2024-02-15T08:49:30;14.00;99.90
13354;DHT22;6746;50.892;4.064;2024-02-15T08:52:01;14.00;99.90
13354;DHT22;6746;50.892;4.064;2024-02-15T08:54:30;14.00;99.90
13354;DHT22;6746;50.892;4.064;2024-02-15T08:57:18;14.00;99.90
13354;DHT22;6746;50.892;4.064;2024-02-15T08:59:50;14.00;99.90
13354;DHT22;6746;50.892;4.064;2024-02-15T09:02:19;14.00;99.90
13354;DHT22;6746;50.892;4.064;2024-02-15T09:04:57;14.10;99.90
13354;DHT22;6746;50.892;4.064;2024-02-15T09:07:33;14.10;99.90
13354;DHT22;6746;50.892;4.064;2024-02-15T09:10:03;14.10;99.90
13354;DHT22;6746;50.892;4.064;2024-02-15T09:12:31;14.10;99.90
13354;DHT22;6746;50.892;4.064;2024-02-15T09:15:00;14.20;99.90
13354;DHT22;6746;50.892;4.064;2024-02-15T09:17:29;14.20;99.90
13354;DHT22;6746;50.892;4.064;2024-02-15T09:19:58;14.30;99.90
13354;DHT22;6746;50.892;4.064;2024-02-15T09:22:27;14.40;99.90
13354;DHT22;6746;50.892;4.064;2024-02-15T09:24:55;14.50;99.90
13354;DHT22;6746;50.892;4.064;2024-02-15T09:27:24;14.50;99.90
13354;DHT22;6746;50.892;4.064;2024-02-15T09:29:54;14.60;99.90
13354;DHT22;6746;50.892;4.064;2024-02-15T09:32:25;14.70;99.90
13354;DHT22;6746;50.892;4.064;2024-02-15T09:34:54;14.80;99.90
13354;DHT22;6746;50.892;4.064;2024-02-15T09:37:26;14.90;99.90
13354;DHT22;6746;50.892;4.064;2024-02-15T09:39:55;15.00;99.90
13354;DHT22;6746;50.892;4.064;2024-02-15T09:42:24;15.00;99.90
13354;DHT22;6746;50.892;4.064;2024-02-15T09:44:53;15.00;99.90
13354;DHT22;6746;50.892;4.064;2024-02-15T09:47:34;15.10;99.90
13354;DHT22;6746;50.892;4.064;2024-02-15T09:50:13;15.10;99.90
13354;DHT22;6746;50.892;4.064;2024-02-15T09:52:53;15.10;99.90
13354;DHT22;6746;50.892;4.064;2024-02-15T09:55:27;15.20;99.90
13354;DHT22;6746;50.892;4.064;2024-02-15T09:57:55;15.10;99.90
13354;DHT22;6746;50.892;4.064;2024-02-15T10:00:27;15.30;99.90
13354;DHT22;6746;50.892;4.064;2024-02-15T10:02:56;15.40;99.90
13354;DHT22;6746;50.892;4.064;2024-02-15T10:05:26;15.50;99.90
13354;DHT22;6746;50.892;4.064;2024-02-15T10:07:55;15.50;99.90
13354;DHT22;6746;50.892;4.064;2024-02-15T10:10:34;15.50;99.90
13354;DHT22;6746;50.892;4.064;2024-02-15T10:13:08;15.50;99.90
13354;DHT22;6746;50.892;4.064;2024-02-15T10:15:36;15.50;99.90
13354;DHT22;6746;50.892;4.064;2024-02-15T10:18:05;15.50;99.90
13354;DHT22;6746;50.892;4.064;2024-02-15T10:20:45;15.50;99.90
13354;DHT22;6746;50.892;4.064;2024-02-15T10:23:14;15.60;99.90
13354;DHT22;6746;50.892;4.064;2024-02-15T10:25:42;15.60;99.90
13354;DHT22;6746;50.892;4.064;2024-02-15T10:28:21;15.60;99.90
13354;DHT22;6746;50.892;4.064;2024-02-15T10:30:58;15.70;99.90
13354;DHT22;6746;50.892;4.064;2024-02-15T10:33:27;15.80;99.90
13354;DHT22;6746;50.892;4.064;2024-02-15T10:36:07;15.80;99.90
13354;DHT22;6746;50.892;4.064;2024-02-15T10:38:37;15.80;99.90
13354;DHT22;6746;50.892;4.064;2024-02-15T10:41:16;16.00;99.90
13354;DHT22;6746;50.892;4.064;2024-02-15T10:44:04;16.00;99.90
13354;DHT22;6746;50.892;4.064;2024-02-15T10:46:42;16.10;99.90
13354;DHT22;6746;50.892;4.064;2024-02-15T10:49:25;16.20;99.90
13354;DHT22;6746;50.892;4.064;2024-02-15T10:52:01;16.40;99.90
13354;DHT22;6746;50.892;4.064;2024-02-15T10:57:25;16.40;99.90
13354;DHT22;6746;50.892;4.064;2024-02-15T10:59:57;16.30;99.90
13354;DHT22;6746;50.892;4.064;2024-02-15T11:02:31;16.30;99.90
13354;DHT22;6746;50.892;4.064;2024-02-15T11:05:06;16.20;99.90
13354;DHT22;6746;50.892;4.064;2024-02-15T11:07:42;16.20;99.90
13354;DHT22;6746;50.892;4.064;2024-02-15T11:10:10;16.20;99.90
13354;DHT22;6746;50.892;4.064;2024-02-15T11:12:39;16.30;99.90
13354;DHT22;6746;50.892;4.064;2024-02-15T11:18:43;16.30;99.90
13354;DHT22;6746;50.892;4.064;2024-02-15T11:24:28;16.50;99.90
13354;DHT22;6746;50.892;4.064;2024-02-15T11:27:06;16.50;99.90
13354;DHT22;6746;50.892;4.064;2024-02-15T11:29:53;16.60;99.90
13354;DHT22;6746;50.892;4.064;2024-02-15T11:32:37;16.60;99.90
13354;DHT22;6746;50.892;4.064;2024-02-15T11:35:06;16.70;99.90
13354;DHT22;6746;50.892;4.064;2024-02-15T11:40:25;17.00;99.90
13354;DHT22;6746;50.892;4.064;2024-02-15T11:42:56;17.00;99.90
13354;DHT22;6746;50.892;4.064;2024-02-15T11:45:35;17.10;99.90
13354;DHT22;6746;50.892;4.064;2024-02-15T11:48:13;17.10;99.90
13354;DHT22;6746;50.892;4.064;2024-02-15T11:50:49;17.20;99.90
13354;DHT22;6746;50.892;4.064;2024-02-15T11:53:18;17.20;99.90
13354;DHT22;6746;50.892;4.064;2024-02-15T11:55:49;17.30;99.90
13354;DHT22;6746;50.892;4.064;2024-02-15T11:58:18;17.30;99.90
13354;DHT22;6746;50.892;4.064;2024-02-15T12:01:09;17.30;99.90
13354;DHT22;6746;50.892;4.064;2024-02-15T12:04:07;17.30;99.90
13354;DHT22;6746;50.892;4.064;2024-02-15T12:06:58;17.20;99.90
13354;DHT22;6746;50.892;4.064;2024-02-15T12:09:47;17.20;99.90
13354;DHT22;6746;50.892;4.064;2024-02-15T12:12:50;17.20;99.90
13354;DHT22;6746;50.892;4.064;2024-02-15T12:15:30;17.20;99.90
13354;DHT22;6746;50.892;4.064;2024-02-15T12:18:14;17.20;99.90
13354;DHT22;6746;50.892;4.064;2024-02-15T12:21:03;17.20;99.90
13354;DHT22;6746;50.892;4.064;2024-02-15T12:23:40;17.30;99.90
13354;DHT22;6746;50.892;4.064;2024-02-15T12:26:11;17.30;99.90
13354;DHT22;6746;50.892;4.064;2024-02-15T12:28:42;17.40;99.90
13354;DHT22;6746;50.892;4.064;2024-02-15T12:31:13;17.40;99.90
13354;DHT22;6746;50.892;4.064;2024-02-15T12:33:58;17.50;99.90
13354;DHT22;6746;50.892;4.064;2024-02-15T12:36:19;17.60;99.90
13354;DHT22;6746;50.892;4.064;2024-02-15T12:39:00;17.70;99.90
13354;DHT22;6746;50.892;4.064;2024-02-15T12:41:48;17.70;99.90
13354;DHT22;6746;50.892;4.064;2024-02-15T12:44:31;17.90;99.90
13354;DHT22;6746;50.892;4.064;2024-02-15T12:47:09;17.90;99.90
13354;DHT22;6746;50.892;4.064;2024-02-15T12:49:48;17.90;99.90
13354;DHT22;6746;50.892;4.064;2024-02-15T12:52:37;18.00;99.90
13354;DHT22;6746;50.892;4.064;2024-02-15T12:55:09;18.10;99.90
13354;DHT22;6746;50.892;4.064;2024-02-15T12:57:49;18.20;99.90
13354;DHT22;6746;50.892;4.064;2024-02-15T13:00:25;18.10;99.90
13354;DHT22;6746;50.892;4.064;2024-02-15T13:03:01;18.10;99.90
13354;DHT22;6746;50.892;4.064;2024-02-15T13:05:48;18.10;99.90
13354;DHT22;6746;50.892;4.064;2024-02-15T13:08:26;18.00;99.90
13354;DHT22;6746;50.892;4.064;2024-02-15T13:11:04;18.10;99.90
13354;DHT22;6746;50.892;4.064;2024-02-15T13:13:43;18.10;99.90
13354;DHT22;6746;50.892;4.064;2024-02-15T13:16:21;18.10;99.90
13354;DHT22;6746;50.892;4.064;2024-02-15T13:18:59;18.20;99.90
13354;DHT22;6746;50.892;4.064;2024-02-15T13:21:28;18.20;99.90
13354;DHT22;6746;50.892;4.064;2024-02-15T13:23:56;18.30;99.90
13354;DHT22;6746;50.892;4.064;2024-02-15T13:26:35;18.40;99.90
13354;DHT22;6746;50.892;4.064;2024-02-15T13:29:13;18.30;99.90
13354;DHT22;6746;50.892;4.064;2024-02-15T13:31:45;18.40;99.90
13354;DHT22;6746;50.892;4.064;2024-02-15T13:34:19;18.50;99.90
13354;DHT22;6746;50.892;4.064;2024-02-15T13:36:58;18.60;99.90
13354;DHT22;6746;50.892;4.064;2024-02-15T13:39:36;18.60;99.90
13354;DHT22;6746;50.892;4.064;2024-02-15T13:42:08;18.60;99.90
13354;DHT22;6746;50.892;4.064;2024-02-15T13:44:46;18.60;99.90
13354;DHT22;6746;50.892;4.064;2024-02-15T13:47:34;18.50;99.90
13354;DHT22;6746;50.892;4.064;2024-02-15T13:50:22;18.50;99.90
13354;DHT22;6746;50.892;4.064;2024-02-15T13:52:56;18.50;99.90
13354;DHT22;6746;50.892;4.064;2024-02-15T13:55:25;18.30;99.90
13354;DHT22;6746;50.892;4.064;2024-02-15T13:58:02;18.30;99.90
13354;DHT22;6746;50.892;4.064;2024-02-15T14:00:31;18.20;99.90
13354;DHT22;6746;50.892;4.064;2024-02-15T14:03:00;18.20;99.90
13354;DHT22;6746;50.892;4.064;2024-02-15T14:05:39;18.10;99.90
13354;DHT22;6746;50.892;4.064;2024-02-15T14:08:16;18.10;99.90
13354;DHT22;6746;50.892;4.064;2024-02-15T14:10:45;18.10;99.90
13354;DHT22;6746;50.892;4.064;2024-02-15T14:13:23;18.10;99.90
13354;DHT22;6746;50.892;4.064;2024-02-15T14:15:53;18.10;99.90
13354;DHT22;6746;50.892;4.064;2024-02-15T14:18:22;18.00;99.90
13354;DHT22;6746;50.892;4.064;2024-02-15T14:21:01;18.00;99.90
13354;DHT22;6746;50.892;4.064;2024-02-15T14:23:39;18.00;99.90
13354;DHT22;6746;50.892;4.064;2024-02-15T14:26:30;18.00;99.90
13354;DHT22;6746;50.892;4.064;2024-02-15T14:29:15;18.00;99.90
13354;DHT22;6746;50.892;4.064;2024-02-15T14:31:52;18.00;99.90
13354;DHT22;6746;50.892;4.064;2024-02-15T14:34:36;18.00;99.90
13354;DHT22;6746;50.892;4.064;2024-02-15T14:37:10;18.00;99.90
13354;DHT22;6746;50.892;4.064;2024-02-15T14:39:39;18.00;99.90
13354;DHT22;6746;50.892;4.064;2024-02-15T14:42:18;17.90;99.90
13354;DHT22;6746;50.892;4.064;2024-02-15T14:44:47;17.90;99.90
13354;DHT22;6746;50.892;4.064;2024-02-15T14:47:15;17.80;99.90
13354;DHT22;6746;50.892;4.064;2024-02-15T14:49:44;17.70;99.90
13354;DHT22;6746;50.892;4.064;2024-02-15T14:52:13;17.70;99.90
13354;DHT22;6746;50.892;4.064;2024-02-15T14:54:42;17.60;99.90
13354;DHT22;6746;50.892;4.064;2024-02-15T14:57:11;17.60;99.90
13354;DHT22;6746;50.892;4.064;2024-02-15T14:59:40;17.60;99.90
13354;DHT22;6746;50.892;4.064;2024-02-15T15:02:09;17.60;99.90
13354;DHT22;6746;50.892;4.064;2024-02-15T15:04:38;17.60;99.90
13354;DHT22;6746;50.892;4.064;2024-02-15T15:07:33;17.50;99.90
13354;DHT22;6746;50.892;4.064;2024-02-15T15:10:20;17.50;99.90
13354;DHT22;6746;50.892;4.064;2024-02-15T15:13:10;17.60;99.90
13354;DHT22;6746;50.892;4.064;2024-02-15T15:15:39;17.50;99.90
13354;DHT22;6746;50.892;4.064;2024-02-15T15:18:08;17.40;99.90
13354;DHT22;6746;50.892;4.064;2024-02-15T15:20:39;17.40;99.90
13354;DHT22;6746;50.892;4.064;2024-02-15T15:23:08;17.40;99.90
13354;DHT22;6746;50.892;4.064;2024-02-15T15:25:38;17.40;99.90
13354;DHT22;6746;50.892;4.064;2024-02-15T15:28:06;17.30;99.90
13354;DHT22;6746;50.892;4.064;2024-02-15T15:30:35;17.30;99.90
13354;DHT22;6746;50.892;4.064;2024-02-15T15:33:17;17.20;99.90
13354;DHT22;6746;50.892;4.064;2024-02-15T15:35:45;17.20;99.90
13354;DHT22;6746;50.892;4.064;2024-02-15T15:38:14;17.20;99.90
13354;DHT22;6746;50.892;4.064;2024-02-15T15:40:51;17.10;99.90
13354;DHT22;6746;50.892;4.064;2024-02-15T15:43:23;17.10;99.90
13354;DHT22;6746;50.892;4.064;2024-02-15T15:46:00;17.00;99.90
13354;DHT22;6746;50.892;4.064;2024-02-15T15:48:28;17.00;99.90
13354;DHT22;6746;50.892;4.064;2024-02-15T15:51:07;16.90;99.90
13354;DHT22;6746;50.892;4.064;2024-02-15T15:53:45;16.80;99.90
13354;DHT22;6746;50.892;4.064;2024-02-15T15:56:23;16.70;99.90
13354;DHT22;6746;50.892;4.064;2024-02-15T15:59:11;16.70;99.90
13354;DHT22;6746;50.892;4.064;2024-02-15T16:01:50;16.60;99.90
13354;DHT22;6746;50.892;4.064;2024-02-15T16:04:18;16.60;99.90
13354;DHT22;6746;50.892;4.064;2024-02-15T16:06:56;16.50;99.90
13354;DHT22;6746;50.892;4.064;2024-02-15T16:09:25;16.50;99.90
13354;DHT22;6746;50.892;4.064;2024-02-15T16:11:53;16.40;99.90
13354;DHT22;6746;50.892;4.064;2024-02-15T16:14:22;16.40;99.90
13354;DHT22;6746;50.892;4.064;2024-02-15T16:16:51;16.40;99.90
13354;DHT22;6746;50.892;4.064;2024-02-15T16:19:20;16.40;99.90
13354;DHT22;6746;50.892;4.064;2024-02-15T16:21:49;16.40;99.90
13354;DHT22;6746;50.892;4.064;2024-02-15T16:24:18;16.40;99.90
13354;DHT22;6746;50.892;4.064;2024-02-15T16:26:47;16.30;99.90
13354;DHT22;6746;50.892;4.064;2024-02-15T16:29:19;16.30;99.90
13354;DHT22;6746;50.892;4.064;2024-02-15T16:31:48;16.20;99.90
13354;DHT22;6746;50.892;4.064;2024-02-15T16:34:19;16.20;99.90
13354;DHT22;6746;50.892;4.064;2024-02-15T16:36:48;16.10;99.90
13354;DHT22;6746;50.892;4.064;2024-02-15T16:39:22;16.10;99.90
13354;DHT22;6746;50.892;4.064;2024-02-15T16:41:51;16.00;99.90
13354;DHT22;6746;50.892;4.064;2024-02-15T16:44:28;16.00;99.90
13354;DHT22;6746;50.892;4.064;2024-02-15T16:46:56;15.90;99.90
13354;DHT22;6746;50.892;4.064;2024-02-15T16:49:25;15.90;99.90
13354;DHT22;6746;50.892;4.064;2024-02-15T16:51:54;15.80;99.90
13354;DHT22;6746;50.892;4.064;2024-02-15T16:54:25;15.80;99.90
13354;DHT22;6746;50.892;4.064;2024-02-15T16:56:54;15.80;99.90
13354;DHT22;6746;50.892;4.064;2024-02-15T16:59:33;15.70;99.90
13354;DHT22;6746;50.892;4.064;2024-02-15T17:02:11;15.80;99.90